createdAt,value
2018-06-03T00:03:02.727Z,79.70
2018-06-03T00:08:05.932Z,98.83
2018-06-03T00:13:09.449Z,112.30
2018-06-03T00:18:12.589Z,77.23
2018-06-03T00:23:15.717Z,70.00
2018-06-03T00:28:18.872Z,71.97
2018-06-03T00:33:22.656Z,73.57
2018-06-03T00:38:25.564Z,68.57
2018-06-03T00:43:28.771Z,71.70
2018-06-03T00:48:32.029Z,73.93
2018-06-03T00:53:34.912Z,72.13
2018-06-03T00:58:38.329Z,80.43
2018-06-03T01:03:41.700Z,81.63
2018-06-03T01:08:44.588Z,72.40
2018-06-03T01:13:47.420Z,76.20
2018-06-03T01:18:50.688Z,79.17
2018-06-03T01:23:53.596Z,77.63
2018-06-03T01:28:56.976Z,94.60
2018-06-03T01:34:00.569Z,76.50
2018-06-03T01:39:05.450Z,82.53
2018-06-03T01:45:23.000Z,88.80
2018-06-03T01:50:26.552Z,98.53
2018-06-03T01:55:30.047Z,101.67
2018-06-03T02:00:33.332Z,91.37
2018-06-03T02:05:36.781Z,105.67
2018-06-03T02:10:39.765Z,105.83
2018-06-03T02:15:42.867Z,97.90
2018-06-03T02:20:46.310Z,103.30
2018-06-03T02:25:49.793Z,102.57
2018-06-03T02:30:52.952Z,96.53
2018-06-03T02:35:56.782Z,105.43
2018-06-03T02:40:59.863Z,94.73
2018-06-03T02:46:03.157Z,100.70
2018-06-03T02:51:06.284Z,90.90
2018-06-03T02:56:54.704Z,85.53
2018-06-03T03:01:57.850Z,96.53
2018-06-03T03:07:01.662Z,86.37
2018-06-03T03:12:05.164Z,80.70
2018-06-03T03:17:08.221Z,78.13
2018-06-03T03:22:11.459Z,88.67
2018-06-03T03:27:14.601Z,79.43
2018-06-03T03:32:17.785Z,84.30
2018-06-03T03:37:22.590Z,84.27
2018-06-03T03:42:25.593Z,76.87
2018-06-03T03:47:28.746Z,87.73
2018-06-03T03:52:32.517Z,76.80
2018-06-03T03:57:35.594Z,87.30
2018-06-03T04:02:38.828Z,92.30
2018-06-03T04:07:42.611Z,69.63
2018-06-03T04:12:45.828Z,75.67
2018-06-03T04:17:48.744Z,78.53
2018-06-03T04:22:52.017Z,93.53
2018-06-03T04:27:54.879Z,84.37
2018-06-03T04:32:58.709Z,84.33
2018-06-03T04:38:02.681Z,91.83
2018-06-03T04:43:05.806Z,106.83
2018-06-03T04:48:08.900Z,65.77
2018-06-03T04:53:12.355Z,74.77
2018-06-03T04:58:15.767Z,68.50
2018-06-03T05:03:18.788Z,72.37
2018-06-03T05:08:22.312Z,72.23
2018-06-03T05:13:25.481Z,65.37
2018-06-03T05:18:28.521Z,67.90
2018-06-03T05:23:31.995Z,61.47
2018-06-03T05:28:35.440Z,66.20
2018-06-03T05:33:38.645Z,69.27
2018-06-03T05:38:42.192Z,67.53
2018-06-03T05:43:45.404Z,74.87
2018-06-03T05:48:48.560Z,69.97
2018-06-03T05:53:56.274Z,65.60
2018-06-03T05:58:59.389Z,66.40
2018-06-03T06:04:02.468Z,56.87
2018-06-03T06:09:06.757Z,53.77
2018-06-03T06:14:10.220Z,61.93
2018-06-03T06:19:13.798Z,52.60
2018-06-03T06:24:17.047Z,57.90
2018-06-03T06:29:19.990Z,46.50
2018-06-03T06:34:22.890Z,42.20
2018-06-03T06:39:31.513Z,37.30
2018-06-03T06:44:34.889Z,40.70
2018-06-03T06:49:38.273Z,37.63
2018-06-03T06:54:41.534Z,48.23
2018-06-03T06:59:44.465Z,45.83
2018-06-03T07:04:47.456Z,47.00
2018-06-03T07:09:50.569Z,39.00
2018-06-03T07:14:53.616Z,40.87
2018-06-03T07:20:00.469Z,39.43
2018-06-03T07:25:03.410Z,40.87
2018-06-03T07:30:06.340Z,39.87
2018-06-03T07:35:14.121Z,42.90
2018-06-03T07:40:17.547Z,39.33
2018-06-03T07:45:33.159Z,48.13
2018-06-03T07:50:37.768Z,41.50
2018-06-03T07:55:41.341Z,39.93
2018-06-03T08:00:44.291Z,43.40
2018-06-03T08:05:47.201Z,36.70
2018-06-03T08:10:50.282Z,36.77
2018-06-03T08:15:53.202Z,46.33
2018-06-03T08:20:56.450Z,30.03
2018-06-03T08:26:03.248Z,39.03
2018-06-03T08:31:06.792Z,30.90
2018-06-03T08:36:14.353Z,27.87
2018-06-03T08:41:17.684Z,24.83
2018-06-03T08:46:20.796Z,26.60
2018-06-03T08:51:23.983Z,26.30
2018-06-03T08:56:27.182Z,26.20
2018-06-03T09:01:30.070Z,25.70
2018-06-03T09:06:33.016Z,21.90
2018-06-03T09:11:36.402Z,27.50
2018-06-03T09:16:39.307Z,19.53
2018-06-03T09:21:42.225Z,23.07
2018-06-03T09:26:45.464Z,17.40
2018-06-03T09:31:48.372Z,19.10
2018-06-03T09:36:51.399Z,16.93
2018-06-03T09:41:54.740Z,18.90
2018-06-03T09:46:58.487Z,16.10
2018-06-03T09:52:05.862Z,16.60
2018-06-03T09:57:09.783Z,16.30
2018-06-03T10:02:12.705Z,19.90
2018-06-03T10:07:15.690Z,17.53
2018-06-03T10:12:22.973Z,18.20
2018-06-03T10:17:27.123Z,28.13
2018-06-03T10:22:34.147Z,20.20
2018-06-03T10:27:37.426Z,21.47
2018-06-03T10:32:41.480Z,21.33
2018-06-03T10:37:44.398Z,23.93
2018-06-03T10:42:47.859Z,18.40
2018-06-03T10:47:50.787Z,17.90
2018-06-03T10:52:53.786Z,16.43
2018-06-03T10:58:00.640Z,23.30
2018-06-03T11:03:04.196Z,20.87
2018-06-03T11:08:14.572Z,24.00
2018-06-03T11:13:18.596Z,18.70
2018-06-03T11:18:21.512Z,15.63
2018-06-03T11:23:24.482Z,16.87
2018-06-03T11:28:27.457Z,15.10
2018-06-03T11:33:30.384Z,18.70
2018-06-03T11:38:33.322Z,18.03
2018-06-03T11:43:36.499Z,21.70
2018-06-03T11:48:39.668Z,19.70
2018-06-03T11:53:42.610Z,24.13
2018-06-03T11:58:51.831Z,20.97
2018-06-03T12:03:54.861Z,23.97
2018-06-03T12:08:57.774Z,22.97
2018-06-03T12:14:00.776Z,36.07
2018-06-03T12:19:04.245Z,28.10
2018-06-03T12:24:07.169Z,26.20
2018-06-03T12:29:10.142Z,24.47
2018-06-03T12:34:13.083Z,23.60
2018-06-03T12:39:15.981Z,31.53
2018-06-03T12:44:19.352Z,27.67
2018-06-03T12:49:22.700Z,26.43
2018-06-03T12:54:25.987Z,22.90
2018-06-03T12:59:29.070Z,27.27
2018-06-03T13:04:32.067Z,31.40
2018-06-03T13:09:35.416Z,29.63
2018-06-03T13:14:38.719Z,28.30
2018-06-03T13:19:41.911Z,29.30
2018-06-03T13:24:45.000Z,35.07
2018-06-03T13:29:48.096Z,29.80
2018-06-03T13:34:51.040Z,37.13
2018-06-03T13:39:53.933Z,32.03
2018-06-03T13:44:57.312Z,32.53
2018-06-03T13:50:00.397Z,34.83
2018-06-03T13:55:03.795Z,38.23
2018-06-03T14:00:06.885Z,39.20
2018-06-03T14:05:10.441Z,44.83
2018-06-03T14:10:13.452Z,40.47
2018-06-03T14:15:16.581Z,40.77
2018-06-03T14:20:19.862Z,39.10
2018-06-03T14:25:23.469Z,52.80
2018-06-03T14:30:26.425Z,48.97
2018-06-03T14:35:29.481Z,47.23
2018-06-03T14:40:32.465Z,42.50
2018-06-03T14:45:37.439Z,44.00
2018-06-03T14:50:40.767Z,39.53
2018-06-03T14:55:51.757Z,44.23
2018-06-03T15:00:54.923Z,38.13
2018-06-03T15:05:58.040Z,36.17
2018-06-03T15:11:01.539Z,33.90
2018-06-03T15:16:04.624Z,30.40
2018-06-03T15:21:07.890Z,29.33
2018-06-03T15:26:11.266Z,23.30
2018-06-03T15:31:14.573Z,28.30
2018-06-03T15:36:17.753Z,23.47
2018-06-03T15:41:25.700Z,25.00
2018-06-03T15:46:33.916Z,22.90
2018-06-03T15:51:37.629Z,22.80
2018-06-03T15:56:43.645Z,29.10
2018-06-03T16:01:46.958Z,21.83
2018-06-03T16:06:50.236Z,28.13
2018-06-03T16:11:53.383Z,17.60
2018-06-03T16:16:56.559Z,24.50
2018-06-03T16:21:59.672Z,25.53
2018-06-03T16:27:02.783Z,28.30
2018-06-03T16:32:06.392Z,26.60
2018-06-03T16:37:09.369Z,20.47
2018-06-03T16:42:12.424Z,21.00
2018-06-03T16:47:20.297Z,23.07
2018-06-03T16:52:23.615Z,26.73
2018-06-03T16:57:26.618Z,22.67
2018-06-03T17:02:30.112Z,20.20
2018-06-03T17:07:33.392Z,18.17
2018-06-03T17:12:36.843Z,22.53
2018-06-03T17:17:39.972Z,17.60
2018-06-03T17:22:43.040Z,22.77
2018-06-03T17:27:46.447Z,15.90
2018-06-03T17:32:49.964Z,16.03
2018-06-03T17:37:53.631Z,22.63
2018-06-03T17:42:57.094Z,16.60
2018-06-03T17:48:00.603Z,19.20
2018-06-03T17:53:04.022Z,14.83
2018-06-03T17:58:07.319Z,13.93
2018-06-03T18:03:11.446Z,15.80
2018-06-03T18:08:16.253Z,16.90
2018-06-03T18:13:19.948Z,19.20
2018-06-03T18:18:24.261Z,21.70
2018-06-03T18:23:28.345Z,20.63
2018-06-03T18:28:32.251Z,17.33
2018-06-03T18:33:35.818Z,18.63
2018-06-03T18:38:39.768Z,18.20
2018-06-03T18:43:44.242Z,16.70
2018-06-03T18:48:48.750Z,17.40
2018-06-03T18:53:53.462Z,20.23
2018-06-03T18:58:57.986Z,17.33
2018-06-03T19:04:01.853Z,20.30
2018-06-03T19:09:07.256Z,31.50
2018-06-03T19:14:11.735Z,27.00
2018-06-03T19:19:15.636Z,22.53
2018-06-03T19:24:19.532Z,26.80
2018-06-03T19:29:23.015Z,19.77
2018-06-03T19:34:27.323Z,20.13
2018-06-03T19:39:30.953Z,19.63
2018-06-03T19:44:35.156Z,21.87
2018-06-03T19:49:39.540Z,24.10
2018-06-03T19:54:43.452Z,21.30
2018-06-03T19:59:46.903Z,21.50
2018-06-03T20:04:50.321Z,19.47
2018-06-03T20:09:53.760Z,22.77
2018-06-03T20:14:57.100Z,22.23
2018-06-03T20:20:01.047Z,16.10
2018-06-03T20:25:04.790Z,16.80
2018-06-03T20:30:08.217Z,19.67
2018-06-03T20:35:11.568Z,16.53
2018-06-03T20:40:14.771Z,18.60
2018-06-03T20:45:17.837Z,19.50
2018-06-03T20:50:20.799Z,18.50
2018-06-03T20:55:23.800Z,18.10
2018-06-03T21:00:26.972Z,26.07
2018-06-03T21:05:29.998Z,16.40
2018-06-03T21:10:33.088Z,21.57
2018-06-03T21:15:36.342Z,17.10
2018-06-03T21:20:39.980Z,21.63
2018-06-03T21:25:43.036Z,17.67
2018-06-03T21:30:46.398Z,20.97
2018-06-03T21:35:49.581Z,18.30
2018-06-03T21:40:52.510Z,20.77
2018-06-03T21:45:55.377Z,26.47
2018-06-03T21:50:58.996Z,28.57
2018-06-03T21:56:01.893Z,19.93
2018-06-03T22:01:05.169Z,19.47
2018-06-03T22:06:08.074Z,21.57
2018-06-03T22:11:11.009Z,22.37
2018-06-03T22:16:14.985Z,18.43
2018-06-03T22:21:18.165Z,16.33
2018-06-03T22:26:21.433Z,16.50
2018-06-03T22:31:24.980Z,20.53
2018-06-03T22:36:28.529Z,17.23
2018-06-03T22:41:31.701Z,16.90
2018-06-03T22:46:34.820Z,25.53
2018-06-03T22:51:38.421Z,24.10
2018-06-03T22:56:55.715Z,24.17
2018-06-03T23:01:59.013Z,28.60
2018-06-03T23:07:02.546Z,29.60
2018-06-03T23:12:05.608Z,30.50
2018-06-03T23:17:08.738Z,31.67
2018-06-03T23:22:11.940Z,33.30
2018-06-03T23:27:15.861Z,34.07
2018-06-03T23:32:18.951Z,36.77
2018-06-03T23:37:22.175Z,40.83
2018-06-03T23:42:25.592Z,36.33
2018-06-03T23:47:28.489Z,35.77
2018-06-03T23:52:32.028Z,34.60
2018-06-03T23:57:35.086Z,35.77
